Time;durP1;ratioP1;P1;durP2;ratioP2;P2;SDS_P1;SDS_P2;PMS_P1;PMS_P2;Temp;Humidity;BMP_temperature;BMP_pressure;BME280_temperature;BME280_humidity;BME280_pressure;Samples;Min_cycle;Max_cycle;Signal;HPM_P1;HPM_P2
2021/06/20 00:00:24;;;;;;;23.13;21.40;;;26.70;95.20;;;;;;3546190;40;20486;-66
2021/06/20 00:02:55;;;;;;;26.03;24.13;;;26.70;95.10;;;;;;3545589;40;20481;-66
2021/06/20 00:05:25;;;;;;;22.97;21.27;;;26.70;95.10;;;;;;3546085;40;20685;-66
2021/06/20 00:07:53;;;;;;;23.53;21.67;;;26.70;95.10;;;;;;3545942;40;20482;-66
2021/06/20 00:10:23;;;;;;;25.20;23.40;;;26.70;95.10;;;;;;3545466;40;20544;-66
2021/06/20 00:12:53;;;;;;;25.10;22.97;;;26.70;95.10;;;;;;3546227;40;20502;-66
2021/06/20 00:15:22;;;;;;;22.20;20.70;;;26.60;95.00;;;;;;3546327;40;20482;-66
2021/06/20 00:17:51;;;;;;;23.57;22.00;;;26.60;95.00;;;;;;3546885;40;20502;-66
2021/06/20 00:20:22;;;;;;;23.27;21.77;;;26.60;95.00;;;;;;3545472;40;20805;-66
2021/06/20 00:22:51;;;;;;;22.20;20.60;;;26.60;95.00;;;;;;3536750;40;20482;-66
2021/06/20 00:25:20;;;;;;;23.60;22.00;;;26.60;94.90;;;;;;3536040;40;20506;-66
2021/06/20 00:27:47;;;;;;;22.43;20.93;;;26.60;94.90;;;;;;3536202;40;21140;-66
2021/06/20 00:30:19;;;;;;;23.20;21.50;;;26.60;94.80;;;;;;3527723;40;20812;-66
2021/06/20 00:32:49;;;;;;;21.60;20.10;;;26.60;94.80;;;;;;3536483;40;20506;-66
2021/06/20 00:35:18;;;;;;;21.50;20.00;;;26.60;94.80;;;;;;3527761;40;20486;-66
2021/06/20 00:37:47;;;;;;;23.77;21.80;;;26.60;94.80;;;;;;3536842;40;20567;-66
2021/06/20 00:40:17;;;;;;;22.07;20.57;;;26.60;94.70;;;;;;3536069;40;20482;-66
2021/06/20 00:42:46;;;;;;;20.90;19.60;;;26.60;94.70;;;;;;3527656;40;20494;-66
2021/06/20 00:45:17;;;;;;;21.90;20.37;;;26.60;94.70;;;;;;3536517;40;20467;-66
2021/06/20 00:47:45;;;;;;;21.83;20.40;;;26.60;94.70;;;;;;3536923;40;20478;-66
2021/06/20 00:50:15;;;;;;;21.40;20.00;;;26.60;94.60;;;;;;3537115;40;20479;-66
2021/06/20 00:52:44;;;;;;;23.33;21.63;;;26.60;94.60;;;;;;3536648;40;20477;-66
2021/06/20 00:55:15;;;;;;;21.20;19.80;;;26.60;94.60;;;;;;3536343;40;20499;-66
2021/06/20 00:57:43;;;;;;;22.60;21.10;;;26.60;94.50;;;;;;3535872;40;20495;-66
2021/06/20 01:00:12;;;;;;;22.60;21.00;;;26.60;94.50;;;;;;3535285;40;20573;-66
2021/06/20 01:02:44;;;;;;;21.70;20.13;;;26.60;94.40;;;;;;3535423;40;20880;-66
2021/06/20 01:05:12;;;;;;;22.40;20.90;;;26.60;94.40;;;;;;3535874;40;20534;-66
2021/06/20 01:07:42;;;;;;;22.50;20.90;;;26.60;94.40;;;;;;3536289;40;21114;-66
2021/06/20 01:10:13;;;;;;;24.27;22.67;;;26.60;94.40;;;;;;3537129;40;20489;-66
2021/06/20 01:12:41;;;;;;;22.37;20.77;;;26.60;94.40;;;;;;3537046;40;20490;-66
2021/06/20 01:15:10;;;;;;;23.00;21.40;;;26.60;94.40;;;;;;3536840;40;20553;-66
2021/06/20 01:17:39;;;;;;;22.50;21.10;;;26.60;94.40;;;;;;3536087;40;20584;-66
2021/06/20 01:20:11;;;;;;;23.67;22.03;;;26.60;94.40;;;;;;3536136;40;20483;-66
2021/06/20 01:22:43;;;;;;;22.73;21.20;;;26.60;94.40;;;;;;3536809;40;20575;-66
2021/06/20 01:25:14;;;;;;;23.23;21.57;;;26.60;94.40;;;;;;3545812;40;20490;-66
2021/06/20 01:27:44;;;;;;;22.83;21.33;;;26.60;94.40;;;;;;3545827;40;20474;-66
2021/06/20 01:30:15;;;;;;;23.50;22.00;;;26.60;94.50;;;;;;3546236;40;20474;-66
2021/06/20 01:32:43;;;;;;;23.80;22.10;;;26.60;94.50;;;;;;3537673;40;20579;-66
2021/06/20 01:35:13;;;;;;;23.90;22.37;;;26.60;94.50;;;;;;3546641;40;20533;-66
2021/06/20 01:37:44;;;;;;;21.80;20.40;;;26.60;94.50;;;;;;3536924;40;20823;-66
2021/06/20 01:40:13;;;;;;;23.30;21.60;;;26.60;94.50;;;;;;3546409;40;20571;-66
2021/06/20 01:42:42;;;;;;;22.53;21.03;;;26.60;94.50;;;;;;3546641;40;20884;-66
2021/06/20 01:45:11;;;;;;;22.40;20.83;;;26.60;94.50;;;;;;3546856;40;20488;-66
2021/06/20 01:47:40;;;;;;;22.97;21.37;;;26.60;94.50;;;;;;3547010;40;20571;-66
2021/06/20 01:50:10;;;;;;;22.40;20.90;;;26.60;94.60;;;;;;3545940;40;20503;-66
2021/06/20 01:52:39;;;;;;;21.63;20.23;;;26.50;94.50;;;;;;3545381;40;20488;-66
2021/06/20 01:55:16;;;;;;;22.57;21.07;;;26.60;94.60;;;;;;3546161;40;20481;-66
2021/06/20 01:57:46;;;;;;;22.63;21.07;;;26.60;94.90;;;;;;3546062;40;20482;-66
2021/06/20 02:00:17;;;;;;;21.43;20.03;;;26.50;94.60;;;;;;3546036;40;20890;-66
2021/06/20 02:02:46;;;;;;;23.17;21.57;;;26.60;94.60;;;;;;3546180;40;20502;-66
2021/06/20 02:05:15;;;;;;;23.30;21.80;;;26.60;94.60;;;;;;3545638;40;20496;-66
2021/06/20 02:07:43;;;;;;;20.90;19.60;;;26.60;94.60;;;;;;3545719;40;20526;-66
2021/06/20 02:10:14;;;;;;;22.37;20.93;;;26.50;94.60;;;;;;3536856;40;21137;-66
2021/06/20 02:12:44;;;;;;;22.10;20.40;;;26.50;94.60;;;;;;3546932;40;20486;-66
2021/06/20 02:15:15;;;;;;;21.67;20.07;;;26.50;94.60;;;;;;3546630;40;20546;-66
2021/06/20 02:17:43;;;;;;;21.70;20.10;;;26.60;94.60;;;;;;3545831;40;20494;-66
2021/06/20 02:20:15;;;;;;;21.10;19.60;;;26.50;94.60;;;;;;3545413;40;20483;-66
2021/06/20 02:22:44;;;;;;;20.97;19.63;;;26.50;94.60;;;;;;3545785;40;20496;-66
2021/06/20 02:25:15;;;;;;;20.57;19.27;;;26.50;94.60;;;;;;3546297;40;20603;-66
2021/06/20 02:27:44;;;;;;;21.50;19.90;;;26.60;94.60;;;;;;3546513;40;20875;-66
2021/06/20 02:30:13;;;;;;;20.50;19.10;;;26.60;94.60;;;;;;3545788;40;20492;-66
2021/06/20 02:32:41;;;;;;;22.23;20.67;;;26.50;94.60;;;;;;3547150;40;20708;-66
2021/06/20 02:35:11;;;;;;;21.90;20.60;;;26.50;94.60;;;;;;3537559;40;20489;-66
2021/06/20 02:37:40;;;;;;;21.53;19.93;;;26.50;94.50;;;;;;3546954;40;20485;-66
2021/06/20 02:40:10;;;;;;;22.50;20.77;;;26.50;94.50;;;;;;3546411;40;20495;-66
2021/06/20 02:42:40;;;;;;;22.77;21.07;;;26.50;94.50;;;;;;3546224;40;20481;-66
2021/06/20 02:45:10;;;;;;;22.37;20.63;;;26.60;94.50;;;;;;3546001;40;20607;-66
2021/06/20 02:47:38;;;;;;;23.97;21.93;;;26.60;94.50;;;;;;3546205;40;20531;-66
2021/06/20 02:50:08;;;;;;;21.03;19.63;;;26.60;94.50;;;;;;3545636;40;20570;-66
2021/06/20 02:52:36;;;;;;;21.93;20.47;;;26.60;94.40;;;;;;3545800;40;20691;-66
2021/06/20 02:55:05;;;;;;;21.03;19.53;;;26.50;94.40;;;;;;3546101;40;20490;-66
2021/06/20 02:57:33;;;;;;;21.13;19.73;;;26.60;94.40;;;;;;3546604;40;20499;-66
2021/06/20 03:00:04;;;;;;;22.47;20.70;;;26.60;94.40;;;;;;3546610;40;20481;-66
2021/06/20 03:02:32;;;;;;;22.50;20.80;;;26.60;94.40;;;;;;3545119;40;20502;-66
2021/06/20 03:04:59;;;;;;;22.17;20.50;;;26.60;94.30;;;;;;3545743;40;20504;-66
2021/06/20 03:07:28;;;;;;;23.47;21.60;;;26.60;94.30;;;;;;3537226;40;20541;-66
2021/06/20 03:09:56;;;;;;;23.53;22.00;;;26.60;94.60;;;;;;3547083;40;20493;-66
2021/06/20 03:12:26;;;;;;;24.50;22.30;;;26.60;94.30;;;;;;3546487;40;20552;-66
2021/06/20 03:14:54;;;;;;;24.10;22.50;;;26.60;94.30;;;;;;3545651;40;20498;-66
2021/06/20 03:17:27;;;;;;;23.47;21.60;;;26.60;94.20;;;;;;3545962;40;20480;-66
2021/06/20 03:19:55;;;;;;;23.27;21.27;;;26.60;94.20;;;;;;3547584;40;20488;-66
2021/06/20 03:22:23;;;;;;;24.00;22.10;;;26.60;94.20;;;;;;3547703;40;20499;-66
2021/06/20 03:24:52;;;;;;;23.63;22.13;;;26.60;94.20;;;;;;3547775;40;20481;-66
2021/06/20 03:27:21;;;;;;;24.10;22.30;;;26.60;94.30;;;;;;3546953;40;20487;-66
2021/06/20 03:29:49;;;;;;;23.37;21.77;;;26.50;94.20;;;;;;3547395;40;20475;-66
2021/06/20 03:32:19;;;;;;;22.77;21.03;;;26.60;94.20;;;;;;3546573;40;20479;-66
2021/06/20 03:34:49;;;;;;;23.30;21.23;;;26.50;94.20;;;;;;3537519;40;20846;-66
2021/06/20 03:37:18;;;;;;;24.33;21.93;;;26.60;94.20;;;;;;3546371;40;20827;-66
2021/06/20 03:39:47;;;;;;;25.87;23.47;;;26.50;94.20;;;;;;3538196;40;20487;-66
2021/06/20 03:42:16;;;;;;;22.90;20.87;;;26.50;94.20;;;;;;3537475;40;20486;-66
2021/06/20 03:44:44;;;;;;;22.50;20.53;;;26.50;94.20;;;;;;3538157;40;20481;-66
2021/06/20 03:47:12;;;;;;;22.73;20.83;;;26.60;94.20;;;;;;3547291;40;20485;-66
2021/06/20 03:49:42;;;;;;;23.30;21.47;;;26.60;94.20;;;;;;3547718;40;21170;-66
2021/06/20 03:52:13;;;;;;;22.60;20.40;;;26.50;94.20;;;;;;3546594;40;20840;-66
2021/06/20 03:54:42;;;;;;;22.50;20.40;;;26.60;94.20;;;;;;3546907;40;20497;-66
2021/06/20 03:57:10;;;;;;;21.90;20.07;;;26.60;94.20;;;;;;3537685;40;20493;-66
2021/06/20 03:59:38;;;;;;;22.30;20.23;;;26.50;94.20;;;;;;3546785;40;20543;-66
2021/06/20 04:02:06;;;;;;;22.60;20.70;;;26.60;94.20;;;;;;3546772;40;20489;-66
2021/06/20 04:04:35;;;;;;;22.83;20.90;;;26.50;94.20;;;;;;3537942;40;20818;-66
2021/06/20 04:07:04;;;;;;;21.80;19.67;;;26.50;94.60;;;;;;3538081;40;20484;-66
2021/06/20 04:09:33;;;;;;;21.70;19.87;;;26.60;94.30;;;;;;3547289;40;20538;-66
2021/06/20 04:12:01;;;;;;;21.80;20.20;;;26.60;94.30;;;;;;3547242;40;20568;-66
2021/06/20 04:14:32;;;;;;;22.80;20.80;;;26.60;94.30;;;;;;3547420;40;20481;-66
2021/06/20 04:17:00;;;;;;;22.83;20.70;;;26.50;94.30;;;;;;3547121;40;20820;-66
2021/06/20 04:19:28;;;;;;;24.37;21.87;;;26.60;94.40;;;;;;3547033;40;20575;-66
2021/06/20 04:21:56;;;;;;;22.50;20.37;;;26.60;94.40;;;;;;3545657;40;20508;-66
2021/06/20 04:24:23;;;;;;;22.20;20.20;;;26.60;94.40;;;;;;3546251;40;20503;-66
2021/06/20 04:26:53;;;;;;;24.33;21.13;;;26.60;94.40;;;;;;3547554;40;20760;-66
2021/06/20 04:29:21;;;;;;;25.60;20.60;;;26.60;94.40;;;;;;3545824;40;20478;-65
2021/06/20 04:31:49;;;;;;;30.33;20.60;;;26.60;94.50;;;;;;3545016;40;20580;-66
2021/06/20 04:34:17;;;;;;;22.17;19.97;;;26.60;94.50;;;;;;3545888;40;20487;-66
2021/06/20 04:36:44;;;;;;;22.10;19.80;;;26.60;94.60;;;;;;3537443;40;20906;-66
2021/06/20 04:39:12;;;;;;;23.17;20.67;;;26.60;94.70;;;;;;3545995;40;20538;-66
2021/06/20 04:41:41;;;;;;;22.30;20.30;;;26.50;94.80;;;;;;3544480;40;20847;-66
2021/06/20 04:46:53;;;;;;;23.93;21.37;;;26.60;95.10;;;;;;3546532;40;20964;-66
2021/06/20 04:49:21;;;;;;;23.77;21.37;;;26.60;95.20;;;;;;3546226;40;20486;-66
2021/06/20 04:51:49;;;;;;;21.40;19.30;;;26.60;95.30;;;;;;3537895;40;20977;-66
2021/06/20 04:54:17;;;;;;;22.80;20.80;;;26.60;95.40;;;;;;3547382;40;20728;-66
2021/06/20 04:56:45;;;;;;;23.40;21.50;;;26.60;95.50;;;;;;3546556;40;20498;-66
2021/06/20 04:59:14;;;;;;;23.10;20.70;;;26.60;95.60;;;;;;3546516;40;20890;-66
2021/06/20 05:01:42;;;;;;;21.63;19.43;;;26.60;95.60;;;;;;3546755;40;20883;-66
2021/06/20 05:04:10;;;;;;;22.07;19.23;;;26.60;95.70;;;;;;3546609;40;20483;-66
2021/06/20 05:06:38;;;;;;;22.43;20.03;;;26.60;95.80;;;;;;3537400;40;20477;-66
2021/06/20 05:09:06;;;;;;;21.20;19.10;;;26.60;95.90;;;;;;3546705;40;20481;-66
2021/06/20 05:11:35;;;;;;;21.93;19.63;;;26.60;96.00;;;;;;3545783;40;20500;-66
2021/06/20 05:14:03;;;;;;;23.23;20.00;;;26.60;96.10;;;;;;3545533;40;20477;-66
2021/06/20 05:16:33;;;;;;;27.77;19.80;;;26.60;96.20;;;;;;3544364;40;20573;-66
2021/06/20 05:19:01;;;;;;;21.60;19.77;;;26.60;96.30;;;;;;3545074;40;20476;-66
2021/06/20 05:21:33;;;;;;;20.30;17.93;;;26.60;96.40;;;;;;3546148;40;20490;-66
2021/06/20 05:24:01;;;;;;;21.60;19.50;;;26.60;96.60;;;;;;3546451;40;20853;-66
2021/06/20 05:26:32;;;;;;;21.07;19.10;;;26.60;96.70;;;;;;3545815;40;20485;-66
2021/06/20 05:29:00;;;;;;;19.63;18.10;;;26.60;96.80;;;;;;3545925;40;20513;-66
2021/06/20 05:31:28;;;;;;;20.40;18.30;;;26.60;96.90;;;;;;3545333;40;20497;-66
2021/06/20 05:33:57;;;;;;;21.90;19.70;;;26.60;96.90;;;;;;3546397;40;20493;-66
2021/06/20 05:36:25;;;;;;;22.93;19.57;;;26.60;97.00;;;;;;3545478;40;20488;-66
2021/06/20 05:38:53;;;;;;;19.17;17.20;;;26.60;97.20;;;;;;3545377;40;20552;-66
2021/06/20 05:41:22;;;;;;;21.33;19.10;;;26.60;97.20;;;;;;3544810;40;20492;-66
2021/06/20 05:43:49;;;;;;;20.53;18.40;;;26.60;97.20;;;;;;3545881;40;20853;-66
2021/06/20 05:46:19;;;;;;;21.73;19.50;;;26.60;97.40;;;;;;3544997;40;20470;-66
2021/06/20 05:48:46;;;;;;;19.30;17.70;;;26.60;97.50;;;;;;3545269;40;20497;-66
2021/06/20 05:51:17;;;;;;;20.30;18.43;;;26.60;97.60;;;;;;3545663;40;20537;-66
2021/06/20 05:53:46;;;;;;;22.57;19.43;;;26.60;97.80;;;;;;3545488;40;20487;-66
2021/06/20 05:56:13;;;;;;;20.80;19.10;;;26.60;97.90;;;;;;3544648;40;20883;-66
2021/06/20 05:58:42;;;;;;;21.83;18.80;;;26.60;98.00;;;;;;3544252;40;20489;-66
2021/06/20 06:01:10;;;;;;;21.93;18.70;;;26.60;98.10;;;;;;3545115;40;20576;-66
2021/06/20 06:03:38;;;;;;;19.40;17.47;;;26.60;99.90;;;;;;3545235;40;20579;-66
2021/06/20 06:06:06;;;;;;;21.17;17.50;;;26.50;99.90;;;;;;3544136;40;20486;-66
2021/06/20 06:08:36;;;;;;;22.70;17.30;;;26.40;99.90;;;;;;3544463;40;21425;-66
2021/06/20 06:11:03;;;;;;;19.37;16.80;;;26.40;99.90;;;;;;3544660;40;20470;-65
2021/06/20 06:13:32;;;;;;;21.87;18.03;;;26.40;99.90;;;;;;3544705;40;20476;-65
2021/06/20 06:16:01;;;;;;;20.70;17.57;;;26.40;99.90;;;;;;3545032;40;21204;-65
2021/06/20 06:18:29;;;;;;;24.47;17.57;;;26.50;99.90;;;;;;3544067;40;20935;-65
2021/06/20 06:20:56;;;;;;;19.57;17.70;;;26.50;99.90;;;;;;3544331;40;20486;-66
2021/06/20 06:23:25;;;;;;;21.23;17.70;;;26.50;99.90;;;;;;3543628;40;20899;-66
2021/06/20 06:25:55;;;;;;;26.23;18.43;;;26.50;99.90;;;;;;3544088;40;20482;-66
2021/06/20 06:28:23;;;;;;;21.40;18.47;;;26.50;99.90;;;;;;3543477;40;20580;-65
2021/06/20 06:30:50;;;;;;;18.87;16.77;;;26.50;99.90;;;;;;3543800;40;20481;-65
2021/06/20 06:33:17;;;;;;;19.63;17.50;;;26.60;99.90;;;;;;3544088;40;20517;-65
2021/06/20 06:35:46;;;;;;;27.83;18.20;;;26.60;99.90;;;;;;3544005;40;20484;-65
2021/06/20 06:38:15;;;;;;;21.40;19.07;;;26.60;99.90;;;;;;3544875;40;20485;-66
2021/06/20 06:40:42;;;;;;;18.73;16.83;;;26.60;99.90;;;;;;3544743;40;20500;-66
2021/06/20 06:43:12;;;;;;;20.17;16.97;;;26.60;99.90;;;;;;3542807;40;20867;-66
2021/06/20 06:45:40;;;;;;;20.57;17.80;;;26.60;99.90;;;;;;3542330;40;20491;-66
2021/06/20 06:48:09;;;;;;;23.07;17.20;;;26.60;99.90;;;;;;3543754;40;20500;-66
2021/06/20 06:50:37;;;;;;;26.10;18.37;;;26.60;99.90;;;;;;3542911;40;20797;-66
2021/06/20 06:53:05;;;;;;;18.33;15.93;;;26.60;99.90;;;;;;3543552;40;20564;-66
2021/06/20 06:55:33;;;;;;;21.73;15.97;;;26.60;99.90;;;;;;3543900;40;20551;-66
2021/06/20 06:58:02;;;;;;;23.37;16.13;;;26.60;99.90;;;;;;3544278;40;20743;-66
2021/06/20 07:00:31;;;;;;;19.50;17.37;;;26.60;99.90;;;;;;3545171;40;21172;-66
2021/06/20 07:02:59;;;;;;;20.53;18.43;;;26.60;99.80;;;;;;3543437;40;20574;-65
2021/06/20 07:05:27;;;;;;;18.53;15.93;;;26.60;99.70;;;;;;3545076;40;20500;-65
2021/06/20 07:07:56;;;;;;;19.93;17.17;;;26.60;99.60;;;;;;3543583;40;21227;-65
2021/06/20 07:10:24;;;;;;;18.73;16.93;;;26.60;99.50;;;;;;3545326;40;20497;-66
2021/06/20 07:12:52;;;;;;;18.23;16.27;;;26.70;99.50;;;;;;3536677;40;20701;-65
2021/06/20 07:15:20;;;;;;;18.03;16.50;;;26.60;99.30;;;;;;3544148;40;20474;-65
2021/06/20 07:17:50;;;;;;;18.47;16.77;;;26.60;99.20;;;;;;3544440;40;20491;-66
2021/06/20 07:20:18;;;;;;;17.83;15.80;;;26.60;99.20;;;;;;3534872;40;20484;-65
2021/06/20 07:22:47;;;;;;;20.03;16.00;;;26.70;99.10;;;;;;3544659;40;20495;-65
2021/06/20 07:25:16;;;;;;;19.70;17.67;;;26.70;99.10;;;;;;3544683;40;20485;-65
2021/06/20 07:27:45;;;;;;;22.50;19.20;;;26.70;99.00;;;;;;3545599;40;20580;-65
2021/06/20 07:30:15;;;;;;;20.10;18.33;;;26.60;99.00;;;;;;3544243;40;20501;-65
2021/06/20 07:32:45;;;;;;;19.57;17.67;;;26.70;99.00;;;;;;3543183;40;20478;-66
2021/06/20 07:35:15;;;;;;;17.03;15.23;;;26.70;98.90;;;;;;3543998;40;20480;-65
2021/06/20 07:37:43;;;;;;;20.73;14.03;;;26.70;98.80;;;;;;3544865;40;20485;-65
2021/06/20 07:40:13;;;;;;;19.70;14.23;;;26.70;98.70;;;;;;3545912;40;20856;-66
2021/06/20 07:42:42;;;;;;;15.37;13.93;;;26.70;98.40;;;;;;3544855;40;20483;-66
2021/06/20 07:45:11;;;;;;;19.87;15.33;;;26.70;98.20;;;;;;3542928;40;20491;-65
2021/06/20 07:47:39;;;;;;;15.80;14.20;;;26.60;98.20;;;;;;3543422;40;20486;-66
2021/06/20 07:50:08;;;;;;;15.90;13.73;;;26.60;98.10;;;;;;3543789;40;20894;-65
2021/06/20 07:52:39;;;;;;;18.27;15.60;;;26.60;98.00;;;;;;3544965;40;20799;-65
2021/06/20 07:55:08;;;;;;;16.97;15.20;;;26.60;97.90;;;;;;3544040;40;20496;-66
2021/06/20 07:57:36;;;;;;;17.07;14.30;;;26.70;97.90;;;;;;3543028;40;20479;-66
2021/06/20 08:00:08;;;;;;;22.00;15.60;;;26.60;97.80;;;;;;3543714;40;20477;-66
2021/06/20 08:02:41;;;;;;;18.37;13.33;;;26.60;97.70;;;;;;3539984;40;20562;-66
2021/06/20 08:05:11;;;;;;;13.63;12.40;;;26.60;97.50;;;;;;3542541;40;20513;-66
2021/06/20 08:07:40;;;;;;;17.70;11.90;;;26.60;97.10;;;;;;3541404;40;20953;-66
2021/06/20 08:10:09;;;;;;;14.60;12.90;;;26.60;96.60;;;;;;3543477;40;21003;-66
2021/06/20 08:12:37;;;;;;;14.10;12.63;;;26.60;96.50;;;;;;3545228;40;20507;-66
2021/06/20 08:15:07;;;;;;;14.20;12.70;;;26.60;96.30;;;;;;3545494;40;20733;-66
2021/06/20 08:17:34;;;;;;;13.17;11.57;;;26.60;96.30;;;;;;3545314;40;20483;-66
2021/06/20 08:20:06;;;;;;;16.00;11.80;;;26.50;96.40;;;;;;3544874;40;20770;-66
2021/06/20 08:22:33;;;;;;;12.40;11.30;;;26.50;96.30;;;;;;3544799;40;20475;-66
2021/06/20 08:25:05;;;;;;;14.13;12.00;;;26.50;96.20;;;;;;3544884;40;20488;-66
2021/06/20 08:27:32;;;;;;;18.77;12.17;;;26.50;96.20;;;;;;3544617;40;20497;-66
2021/06/20 08:30:01;;;;;;;13.43;11.47;;;26.50;96.70;;;;;;3545303;40;20824;-66
2021/06/20 08:32:30;;;;;;;13.40;12.03;;;26.50;96.90;;;;;;3542912;40;20554;-66
2021/06/20 08:35:00;;;;;;;14.57;12.50;;;26.50;96.80;;;;;;3543058;40;20490;-66
2021/06/20 08:37:29;;;;;;;13.60;11.67;;;26.50;96.60;;;;;;3543916;40;20491;-66
2021/06/20 08:39:59;;;;;;;16.80;12.73;;;26.60;96.50;;;;;;3542913;40;20489;-66
2021/06/20 08:42:28;;;;;;;19.67;13.30;;;26.60;96.50;;;;;;3543039;40;20500;-66
2021/06/20 08:44:56;;;;;;;20.07;13.70;;;26.60;96.60;;;;;;3542887;40;20580;-66
2021/06/20 08:47:23;;;;;;;14.23;12.50;;;26.60;96.60;;;;;;3544039;40;20917;-66
2021/06/20 08:49:50;;;;;;;14.93;13.40;;;26.60;96.70;;;;;;3543971;40;20511;-66
2021/06/20 08:52:18;;;;;;;15.47;14.00;;;26.70;96.70;;;;;;3543220;40;20488;-66
2021/06/20 08:55:04;;;;;;;15.50;14.33;;;26.60;96.80;;;;;;3542462;40;20572;-66
2021/06/20 08:57:34;;;;;;;21.87;15.03;;;26.70;96.90;;;;;;3540513;40;20795;-66
2021/06/20 09:00:04;;;;;;;17.33;13.90;;;26.70;96.70;;;;;;3531541;40;20488;-66
2021/06/20 09:02:36;;;;;;;32.80;15.40;;;26.70;96.80;;;;;;3541160;40;20592;-66
2021/06/20 09:05:07;;;;;;;16.67;15.10;;;26.70;96.60;;;;;;3543051;40;20772;-66
2021/06/20 09:07:37;;;;;;;14.47;13.17;;;26.70;96.60;;;;;;3541868;40;20497;-66
2021/06/20 09:10:12;;;;;;;17.70;15.00;;;26.70;96.60;;;;;;3543023;40;20921;-66
2021/06/20 09:12:50;;;;;;;15.60;14.07;;;26.70;96.50;;;;;;3542458;40;20576;-66
2021/06/20 09:15:20;;;;;;;16.27;14.33;;;26.70;96.50;;;;;;3536319;40;20740;-66
2021/06/20 09:17:54;;;;;;;15.40;13.60;;;26.70;96.50;;;;;;3533151;40;21369;-65
2021/06/20 09:20:38;;;;;;;15.47;14.13;;;26.70;96.50;;;;;;3533384;40;20498;-65
2021/06/20 09:23:09;;;;;;;15.40;13.90;;;26.70;96.40;;;;;;3534402;40;20487;-65
2021/06/20 09:25:38;;;;;;;17.23;15.53;;;26.70;96.40;;;;;;3552463;40;20477;-65
2021/06/20 09:28:11;;;;;;;14.93;13.50;;;26.70;96.40;;;;;;3552573;40;20491;-65
2021/06/20 09:30:47;;;;;;;17.87;13.20;;;26.70;96.40;;;;;;3551990;40;20491;-65
2021/06/20 09:33:15;;;;;;;21.73;14.13;;;26.70;96.00;;;;;;3551728;40;20940;-65
2021/06/20 09:35:45;;;;;;;16.07;13.97;;;26.70;96.00;;;;;;3542285;40;20474;-65
2021/06/20 09:38:18;;;;;;;15.27;13.87;;;26.70;96.10;;;;;;3550526;40;20494;-65
2021/06/20 09:40:48;;;;;;;18.50;13.60;;;26.70;96.10;;;;;;3551487;40;20902;-65
2021/06/20 09:43:19;;;;;;;20.27;13.80;;;26.70;96.10;;;;;;3545202;40;20478;-65
2021/06/20 09:45:48;;;;;;;18.37;14.13;;;26.70;96.20;;;;;;3540305;40;20498;-65
2021/06/20 09:48:26;;;;;;;20.47;15.20;;;26.70;96.30;;;;;;3541360;40;20473;-66
2021/06/20 09:50:56;;;;;;;18.87;14.80;;;26.70;96.40;;;;;;3533401;40;20572;-66
2021/06/20 09:53:37;;;;;;;14.67;13.30;;;26.70;96.40;;;;;;3542459;40;20499;-66
2021/06/20 09:56:21;;;;;;;19.60;14.03;;;26.70;96.40;;;;;;3542273;40;20488;-66
2021/06/20 09:59:00;;;;;;;20.90;15.20;;;26.70;96.40;;;;;;3541756;40;20506;-66
2021/06/20 10:01:30;;;;;;;16.90;15.30;;;26.70;96.40;;;;;;3541709;40;20520;-66
2021/06/20 10:03:59;;;;;;;20.90;15.60;;;26.70;96.40;;;;;;3542739;40;20472;-66
2021/06/20 10:06:27;;;;;;;22.40;16.03;;;26.70;96.40;;;;;;3542166;40;20489;-66
2021/06/20 10:08:54;;;;;;;16.40;14.80;;;26.70;96.50;;;;;;3542262;40;20508;-66
2021/06/20 10:11:21;;;;;;;17.03;15.23;;;26.70;96.50;;;;;;3539495;40;20490;-66
2021/06/20 10:13:49;;;;;;;16.57;14.73;;;26.70;96.50;;;;;;3541825;40;20477;-66
2021/06/20 10:16:22;;;;;;;16.83;15.13;;;26.70;96.50;;;;;;3542815;40;20946;-66
2021/06/20 10:18:53;;;;;;;17.20;15.07;;;26.70;96.60;;;;;;3542047;40;20487;-66
2021/06/20 10:21:37;;;;;;;31.70;20.27;;;26.70;96.60;;;;;;3544650;40;20485;-66
2021/06/20 10:24:12;;;;;;;21.73;19.07;;;26.70;96.70;;;;;;3540006;40;20573;-66
2021/06/20 10:26:42;;;;;;;19.27;17.23;;;26.70;96.70;;;;;;3542876;40;20503;-66
2021/06/20 10:29:19;;;;;;;20.37;16.47;;;26.70;96.70;;;;;;3535830;40;20506;-66
2021/06/20 10:31:52;;;;;;;20.50;14.90;;;26.70;96.70;;;;;;3542586;40;20499;-68
2021/06/20 10:34:22;;;;;;;18.93;15.53;;;26.70;96.70;;;;;;3541442;40;20491;-69
2021/06/20 10:36:52;;;;;;;19.40;15.70;;;26.70;96.70;;;;;;3529804;40;20509;-68
2021/06/20 10:39:19;;;;;;;23.30;16.70;;;26.70;96.80;;;;;;3541287;40;20484;-68
2021/06/20 10:41:48;;;;;;;18.13;16.30;;;26.70;96.80;;;;;;3542292;40;20519;-69
2021/06/20 10:44:16;;;;;;;20.97;16.63;;;26.70;96.80;;;;;;3540957;40;20502;-68
2021/06/20 10:46:56;;;;;;;17.03;15.57;;;26.70;96.80;;;;;;3540884;40;20646;-68
2021/06/20 10:49:23;;;;;;;18.83;16.23;;;26.70;96.90;;;;;;3541944;40;20478;-68
2021/06/20 10:51:51;;;;;;;19.37;15.93;;;26.70;96.90;;;;;;3542539;40;20931;-68
2021/06/20 10:54:28;;;;;;;23.27;17.43;;;26.70;96.90;;;;;;3543101;40;20507;-68
2021/06/20 10:57:01;;;;;;;18.60;16.10;;;26.70;96.90;;;;;;3542576;40;20499;-68
2021/06/20 10:59:29;;;;;;;19.57;16.97;;;26.70;96.90;;;;;;3543239;40;20584;-68
2021/06/20 11:01:59;;;;;;;21.63;16.73;;;26.70;96.90;;;;;;3541834;40;20495;-68
2021/06/20 11:04:28;;;;;;;18.73;16.77;;;26.70;96.90;;;;;;3542800;40;20493;-68
2021/06/20 11:07:00;;;;;;;20.43;16.70;;;26.70;96.90;;;;;;3542053;40;20501;-68
2021/06/20 11:09:36;;;;;;;21.40;17.80;;;26.70;96.90;;;;;;3542187;40;20581;-68
2021/06/20 11:12:15;;;;;;;19.67;17.10;;;26.70;96.90;;;;;;3543197;40;20532;-68
2021/06/20 11:14:44;;;;;;;19.43;17.13;;;26.70;97.20;;;;;;3543619;40;20504;-68
2021/06/20 11:17:14;;;;;;;18.17;16.30;;;26.80;96.90;;;;;;3540113;40;20887;-68
2021/06/20 11:19:41;;;;;;;18.70;16.77;;;26.80;97.00;;;;;;3539459;40;20483;-68
2021/06/20 11:22:12;;;;;;;18.50;16.73;;;26.80;97.00;;;;;;3542128;40;20497;-68
2021/06/20 11:24:42;;;;;;;20.00;18.10;;;26.80;97.00;;;;;;3540158;40;20489;-68
2021/06/20 11:27:13;;;;;;;19.13;16.03;;;26.80;97.00;;;;;;3541617;40;20476;-68
2021/06/20 11:29:43;;;;;;;23.00;17.10;;;26.70;97.00;;;;;;3541303;40;20493;-68
2021/06/20 11:32:19;;;;;;;18.60;16.90;;;26.70;97.00;;;;;;3543381;40;20784;-68
2021/06/20 11:34:49;;;;;;;20.33;17.20;;;26.80;97.10;;;;;;3541508;40;20477;-68
2021/06/20 11:37:22;;;;;;;19.67;17.87;;;26.70;97.00;;;;;;3541865;40;20742;-68
2021/06/20 11:39:54;;;;;;;19.37;17.30;;;26.70;97.00;;;;;;3540742;40;21050;-68
2021/06/20 11:42:27;;;;;;;24.73;17.67;;;26.80;97.10;;;;;;3540958;40;20492;-68
2021/06/20 11:44:57;;;;;;;21.83;17.10;;;26.80;97.10;;;;;;3541729;40;20496;-68
2021/06/20 11:47:33;;;;;;;17.20;15.20;;;26.80;97.10;;;;;;3541683;40;20770;-68
2021/06/20 11:50:16;;;;;;;19.57;16.80;;;26.80;97.10;;;;;;3542440;40;20557;-68
2021/06/20 11:52:44;;;;;;;18.47;16.63;;;26.80;97.10;;;;;;3532263;40;20482;-68
2021/06/20 11:55:15;;;;;;;18.13;16.27;;;26.80;97.10;;;;;;3533091;40;20486;-68
2021/06/20 11:57:43;;;;;;;17.83;15.93;;;26.80;97.20;;;;;;3534003;40;20504;-68
2021/06/20 12:00:16;;;;;;;19.17;17.40;;;26.80;97.20;;;;;;3525048;40;20488;-68
2021/06/20 12:02:46;;;;;;;20.57;16.73;;;26.80;97.20;;;;;;3532267;40;20466;-68
2021/06/20 12:05:16;;;;;;;19.73;17.77;;;26.80;97.30;;;;;;3543992;40;20472;-68
2021/06/20 12:07:45;;;;;;;17.67;15.93;;;26.80;97.30;;;;;;3543596;40;20493;-68
2021/06/20 12:10:14;;;;;;;18.70;16.00;;;26.80;97.30;;;;;;3542455;40;20485;-68
2021/06/20 12:12:43;;;;;;;21.37;16.50;;;26.80;97.30;;;;;;3543390;40;20478;-68
2021/06/20 12:15:13;;;;;;;20.23;15.70;;;26.80;97.40;;;;;;3542203;40;20493;-68
2021/06/20 12:17:40;;;;;;;18.30;15.43;;;26.80;97.70;;;;;;3542320;40;20484;-68
2021/06/20 12:20:11;;;;;;;19.37;17.60;;;26.80;97.40;;;;;;3542502;40;20731;-68
2021/06/20 12:22:46;;;;;;;21.50;16.00;;;26.80;97.40;;;;;;3543056;40;20496;-68
2021/06/20 12:25:15;;;;;;;24.60;16.53;;;26.80;97.40;;;;;;3542341;40;20554;-68
2021/06/20 12:27:44;;;;;;;18.10;16.13;;;26.80;97.40;;;;;;3542534;40;20481;-68
2021/06/20 12:30:18;;;;;;;17.17;15.67;;;26.80;97.40;;;;;;3542566;40;20486;-68
2021/06/20 12:32:46;;;;;;;21.90;16.47;;;26.80;97.40;;;;;;3542670;40;20517;-67
2021/06/20 12:35:24;;;;;;;19.70;17.40;;;26.80;97.50;;;;;;3542637;40;20503;-67
2021/06/20 12:37:57;;;;;;;22.33;16.90;;;26.80;97.50;;;;;;3542558;40;20481;-67
2021/06/20 12:40:28;;;;;;;23.60;17.87;;;26.80;97.50;;;;;;3533435;40;20535;-67
2021/06/20 12:42:57;;;;;;;23.30;17.27;;;26.80;97.50;;;;;;3540014;40;20495;-67